sensor_id;sensor_type;location;lat;lon;timestamp;P1;durP1;ratioP1;P2;durP2;ratioP2
23376;SDS011;14353;46.070;13.222;2023-05-20T00:00:07;5.45;;;4.53;;
23376;SDS011;14353;46.070;13.222;2023-05-20T00:02:34;4.80;;;4.30;;
23376;SDS011;14353;46.070;13.222;2023-05-20T00:05:00;4.80;;;4.30;;
23376;SDS011;14353;46.070;13.222;2023-05-20T00:07:26;4.45;;;4.05;;
23376;SDS011;14353;46.070;13.222;2023-05-20T00:09:51;4.70;;;4.30;;
23376;SDS011;14353;46.070;13.222;2023-05-20T00:12:17;4.50;;;4.00;;
23376;SDS011;14353;46.070;13.222;2023-05-20T00:14:43;4.18;;;3.78;;
23376;SDS011;14353;46.070;13.222;2023-05-20T00:17:09;4.35;;;3.92;;
23376;SDS011;14353;46.070;13.222;2023-05-20T00:19:34;4.97;;;4.05;;
23376;SDS011;14353;46.070;13.222;2023-05-20T00:22:00;4.90;;;4.40;;
23376;SDS011;14353;46.070;13.222;2023-05-20T00:24:26;4.75;;;4.28;;
23376;SDS011;14353;46.070;13.222;2023-05-20T00:26:52;5.15;;;4.30;;
23376;SDS011;14353;46.070;13.222;2023-05-20T00:29:19;5.15;;;4.30;;
23376;SDS011;14353;46.070;13.222;2023-05-20T00:31:45;5.38;;;4.40;;
23376;SDS011;14353;46.070;13.222;2023-05-20T00:34:11;5.10;;;4.60;;
23376;SDS011;14353;46.070;13.222;2023-05-20T00:36:37;4.80;;;4.30;;
23376;SDS011;14353;46.070;13.222;2023-05-20T00:39:03;4.72;;;4.32;;
23376;SDS011;14353;46.070;13.222;2023-05-20T00:41:29;4.55;;;4.15;;
23376;SDS011;14353;46.070;13.222;2023-05-20T00:43:54;4.63;;;4.10;;
23376;SDS011;14353;46.070;13.222;2023-05-20T00:46:21;4.40;;;4.00;;
23376;SDS011;14353;46.070;13.222;2023-05-20T00:48:48;4.40;;;4.00;;
23376;SDS011;14353;46.070;13.222;2023-05-20T00:51:15;4.95;;;4.45;;
23376;SDS011;14353;46.070;13.222;2023-05-20T00:53:41;4.75;;;4.32;;
23376;SDS011;14353;46.070;13.222;2023-05-20T00:56:07;4.53;;;4.05;;
23376;SDS011;14353;46.070;13.222;2023-05-20T00:58:34;4.55;;;4.15;;
23376;SDS011;14353;46.070;13.222;2023-05-20T01:01:03;5.45;;;4.32;;
23376;SDS011;14353;46.070;13.222;2023-05-20T01:03:30;4.53;;;4.13;;
23376;SDS011;14353;46.070;13.222;2023-05-20T01:05:55;4.55;;;4.15;;
23376;SDS011;14353;46.070;13.222;2023-05-20T01:08:22;7.15;;;4.43;;
23376;SDS011;14353;46.070;13.222;2023-05-20T01:11:03;5.03;;;4.53;;
23376;SDS011;14353;46.070;13.222;2023-05-20T01:13:35;5.15;;;4.07;;
23376;SDS011;14353;46.070;13.222;2023-05-20T01:16:07;4.85;;;4.35;;
23376;SDS011;14353;46.070;13.222;2023-05-20T01:18:34;5.70;;;4.43;;
23376;SDS011;14353;46.070;13.222;2023-05-20T01:21:01;4.53;;;4.13;;
23376;SDS011;14353;46.070;13.222;2023-05-20T01:23:38;5.15;;;4.53;;
23376;SDS011;14353;46.070;13.222;2023-05-20T01:26:05;5.10;;;4.55;;
23376;SDS011;14353;46.070;13.222;2023-05-20T01:28:31;4.97;;;4.45;;
23376;SDS011;14353;46.070;13.222;2023-05-20T01:30:59;5.05;;;4.43;;
23376;SDS011;14353;46.070;13.222;2023-05-20T01:33:28;4.80;;;4.40;;
23376;SDS011;14353;46.070;13.222;2023-05-20T01:35:55;4.55;;;4.15;;
23376;SDS011;14353;46.070;13.222;2023-05-20T01:38:22;4.97;;;4.47;;
23376;SDS011;14353;46.070;13.222;2023-05-20T01:40:48;5.28;;;4.78;;
23376;SDS011;14353;46.070;13.222;2023-05-20T01:43:16;4.78;;;4.28;;
23376;SDS011;14353;46.070;13.222;2023-05-20T01:45:43;4.82;;;4.40;;
23376;SDS011;14353;46.070;13.222;2023-05-20T01:48:11;4.45;;;4.03;;
23376;SDS011;14353;46.070;13.222;2023-05-20T01:50:38;5.40;;;4.35;;
23376;SDS011;14353;46.070;13.222;2023-05-20T01:53:03;4.82;;;4.43;;
23376;SDS011;14353;46.070;13.222;2023-05-20T01:55:32;5.15;;;4.43;;
23376;SDS011;14353;46.070;13.222;2023-05-20T01:57:58;5.22;;;4.72;;
23376;SDS011;14353;46.070;13.222;2023-05-20T02:00:23;4.80;;;3.92;;
23376;SDS011;14353;46.070;13.222;2023-05-20T02:02:49;5.30;;;4.70;;
23376;SDS011;14353;46.070;13.222;2023-05-20T02:05:15;5.00;;;4.50;;
23376;SDS011;14353;46.070;13.222;2023-05-20T02:07:41;5.05;;;4.55;;
23376;SDS011;14353;46.070;13.222;2023-05-20T02:10:07;4.75;;;4.35;;
23376;SDS011;14353;46.070;13.222;2023-05-20T02:12:33;4.70;;;4.28;;
23376;SDS011;14353;46.070;13.222;2023-05-20T02:14:58;5.22;;;4.72;;
23376;SDS011;14353;46.070;13.222;2023-05-20T02:17:24;5.28;;;4.43;;
23376;SDS011;14353;46.070;13.222;2023-05-20T02:19:50;4.88;;;4.38;;
23376;SDS011;14353;46.070;13.222;2023-05-20T02:22:16;5.10;;;4.57;;
23376;SDS011;14353;46.070;13.222;2023-05-20T02:24:42;4.95;;;4.47;;
23376;SDS011;14353;46.070;13.222;2023-05-20T02:27:08;5.05;;;3.97;;
23376;SDS011;14353;46.070;13.222;2023-05-20T02:29:34;6.20;;;4.65;;
23376;SDS011;14353;46.070;13.222;2023-05-20T02:32:01;5.05;;;4.55;;
23376;SDS011;14353;46.070;13.222;2023-05-20T02:34:26;4.55;;;4.15;;
23376;SDS011;14353;46.070;13.222;2023-05-20T02:36:54;5.00;;;4.60;;
23376;SDS011;14353;46.070;13.222;2023-05-20T02:39:20;4.78;;;4.28;;
23376;SDS011;14353;46.070;13.222;2023-05-20T02:41:46;4.88;;;4.40;;
23376;SDS011;14353;46.070;13.222;2023-05-20T02:44:12;4.55;;;4.15;;
23376;SDS011;14353;46.070;13.222;2023-05-20T02:46:38;4.50;;;4.07;;
23376;SDS011;14353;46.070;13.222;2023-05-20T02:49:03;4.82;;;3.85;;
23376;SDS011;14353;46.070;13.222;2023-05-20T02:51:29;4.68;;;4.28;;
23376;SDS011;14353;46.070;13.222;2023-05-20T02:53:57;4.93;;;4.47;;
23376;SDS011;14353;46.070;13.222;2023-05-20T02:56:23;4.40;;;4.00;;
23376;SDS011;14353;46.070;13.222;2023-05-20T02:58:49;4.57;;;4.18;;
23376;SDS011;14353;46.070;13.222;2023-05-20T03:01:15;5.20;;;4.70;;
23376;SDS011;14353;46.070;13.222;2023-05-20T03:03:40;4.90;;;4.40;;
23376;SDS011;14353;46.070;13.222;2023-05-20T03:06:07;4.75;;;4.35;;
23376;SDS011;14353;46.070;13.222;2023-05-20T03:08:32;5.07;;;4.57;;
23376;SDS011;14353;46.070;13.222;2023-05-20T03:10:58;5.00;;;4.50;;
23376;SDS011;14353;46.070;13.222;2023-05-20T03:13:24;5.35;;;4.03;;
23376;SDS011;14353;46.070;13.222;2023-05-20T03:15:50;5.13;;;4.63;;
23376;SDS011;14353;46.070;13.222;2023-05-20T03:18:16;5.03;;;4.40;;
23376;SDS011;14353;46.070;13.222;2023-05-20T03:20:42;4.75;;;4.25;;
23376;SDS011;14353;46.070;13.222;2023-05-20T03:23:08;5.38;;;4.20;;
23376;SDS011;14353;46.070;13.222;2023-05-20T03:25:35;4.53;;;4.13;;
23376;SDS011;14353;46.070;13.222;2023-05-20T03:28:01;4.38;;;3.97;;
23376;SDS011;14353;46.070;13.222;2023-05-20T03:30:27;4.82;;;4.05;;
23376;SDS011;14353;46.070;13.222;2023-05-20T03:32:53;4.25;;;3.85;;
23376;SDS011;14353;46.070;13.222;2023-05-20T03:35:20;5.40;;;4.20;;
23376;SDS011;14353;46.070;13.222;2023-05-20T03:37:45;4.85;;;4.25;;
23376;SDS011;14353;46.070;13.222;2023-05-20T03:40:11;4.43;;;4.03;;
23376;SDS011;14353;46.070;13.222;2023-05-20T03:42:38;4.15;;;3.75;;
23376;SDS011;14353;46.070;13.222;2023-05-20T03:45:04;4.47;;;4.07;;
23376;SDS011;14353;46.070;13.222;2023-05-20T03:47:30;4.40;;;4.00;;
23376;SDS011;14353;46.070;13.222;2023-05-20T03:49:56;4.60;;;4.20;;
23376;SDS011;14353;46.070;13.222;2023-05-20T03:52:22;4.80;;;4.30;;
23376;SDS011;14353;46.070;13.222;2023-05-20T03:54:48;4.60;;;4.20;;
23376;SDS011;14353;46.070;13.222;2023-05-20T03:57:13;6.13;;;4.38;;
23376;SDS011;14353;46.070;13.222;2023-05-20T03:59:39;4.85;;;4.35;;
23376;SDS011;14353;46.070;13.222;2023-05-20T04:02:05;4.50;;;4.10;;
23376;SDS011;14353;46.070;13.222;2023-05-20T04:04:32;4.45;;;4.05;;
23376;SDS011;14353;46.070;13.222;2023-05-20T04:06:58;4.63;;;4.22;;
23376;SDS011;14353;46.070;13.222;2023-05-20T04:09:24;4.43;;;3.97;;
23376;SDS011;14353;46.070;13.222;2023-05-20T04:11:51;4.65;;;4.25;;
23376;SDS011;14353;46.070;13.222;2023-05-20T04:14:17;5.45;;;4.15;;
23376;SDS011;14353;46.070;13.222;2023-05-20T04:16:43;4.63;;;4.15;;
23376;SDS011;14353;46.070;13.222;2023-05-20T04:19:09;4.50;;;4.10;;
23376;SDS011;14353;46.070;13.222;2023-05-20T04:21:35;4.70;;;4.30;;
23376;SDS011;14353;46.070;13.222;2023-05-20T04:24:01;4.45;;;4.05;;
23376;SDS011;14353;46.070;13.222;2023-05-20T04:26:27;5.22;;;4.72;;
23376;SDS011;14353;46.070;13.222;2023-05-20T04:28:53;4.28;;;3.80;;
23376;SDS011;14353;46.070;13.222;2023-05-20T04:31:19;4.43;;;4.00;;
23376;SDS011;14353;46.070;13.222;2023-05-20T04:33:53;4.18;;;3.80;;
23376;SDS011;14353;46.070;13.222;2023-05-20T04:36:19;4.85;;;4.10;;
23376;SDS011;14353;46.070;13.222;2023-05-20T04:38:46;4.38;;;3.97;;
23376;SDS011;14353;46.070;13.222;2023-05-20T04:41:12;4.40;;;4.00;;
23376;SDS011;14353;46.070;13.222;2023-05-20T04:43:39;4.10;;;3.70;;
23376;SDS011;14353;46.070;13.222;2023-05-20T04:46:05;4.70;;;4.20;;
23376;SDS011;14353;46.070;13.222;2023-05-20T04:48:31;4.80;;;4.30;;
23376;SDS011;14353;46.070;13.222;2023-05-20T04:50:57;4.43;;;4.03;;
23376;SDS011;14353;46.070;13.222;2023-05-20T04:53:23;5.72;;;4.20;;
23376;SDS011;14353;46.070;13.222;2023-05-20T04:55:49;4.60;;;4.20;;
23376;SDS011;14353;46.070;13.222;2023-05-20T04:58:18;4.80;;;4.13;;
23376;SDS011;14353;46.070;13.222;2023-05-20T05:00:44;4.30;;;3.90;;
23376;SDS011;14353;46.070;13.222;2023-05-20T05:03:10;4.47;;;4.07;;
23376;SDS011;14353;46.070;13.222;2023-05-20T05:05:39;4.72;;;4.28;;
23376;SDS011;14353;46.070;13.222;2023-05-20T05:08:06;4.80;;;4.28;;
23376;SDS011;14353;46.070;13.222;2023-05-20T05:10:33;4.65;;;3.92;;
23376;SDS011;14353;46.070;13.222;2023-05-20T05:13:00;4.80;;;4.30;;
23376;SDS011;14353;46.070;13.222;2023-05-20T05:15:26;4.57;;;4.18;;
23376;SDS011;14353;46.070;13.222;2023-05-20T05:17:52;4.22;;;3.83;;
23376;SDS011;14353;46.070;13.222;2023-05-20T05:20:18;4.00;;;3.70;;
23376;SDS011;14353;46.070;13.222;2023-05-20T05:22:44;4.40;;;4.00;;
23376;SDS011;14353;46.070;13.222;2023-05-20T05:25:09;4.43;;;4.03;;
23376;SDS011;14353;46.070;13.222;2023-05-20T05:27:36;4.53;;;4.13;;
23376;SDS011;14353;46.070;13.222;2023-05-20T05:30:03;4.65;;;4.25;;
23376;SDS011;14353;46.070;13.222;2023-05-20T05:32:30;5.10;;;4.57;;
23376;SDS011;14353;46.070;13.222;2023-05-20T05:34:56;4.82;;;4.13;;
23376;SDS011;14353;46.070;13.222;2023-05-20T05:37:22;5.30;;;4.80;;
23376;SDS011;14353;46.070;13.222;2023-05-20T05:39:47;5.35;;;4.85;;
23376;SDS011;14353;46.070;13.222;2023-05-20T05:42:13;6.28;;;4.43;;
23376;SDS011;14353;46.070;13.222;2023-05-20T05:44:39;5.75;;;4.97;;
23376;SDS011;14353;46.070;13.222;2023-05-20T05:47:05;11.30;;;5.43;;
23376;SDS011;14353;46.070;13.222;2023-05-20T05:49:31;8.95;;;5.70;;
23376;SDS011;14353;46.070;13.222;2023-05-20T05:51:57;8.63;;;5.68;;
23376;SDS011;14353;46.070;13.222;2023-05-20T05:54:24;7.68;;;5.75;;
23376;SDS011;14353;46.070;13.222;2023-05-20T05:56:50;9.23;;;6.22;;
23376;SDS011;14353;46.070;13.222;2023-05-20T05:59:16;7.53;;;5.82;;
23376;SDS011;14353;46.070;13.222;2023-05-20T06:01:41;13.90;;;6.60;;
23376;SDS011;14353;46.070;13.222;2023-05-20T06:04:07;11.75;;;6.43;;
23376;SDS011;14353;46.070;13.222;2023-05-20T06:06:33;12.82;;;6.53;;
23376;SDS011;14353;46.070;13.222;2023-05-20T06:09:00;9.52;;;6.57;;
23376;SDS011;14353;46.070;13.222;2023-05-20T06:11:27;11.10;;;6.57;;
23376;SDS011;14353;46.070;13.222;2023-05-20T06:13:55;14.27;;;6.53;;
23376;SDS011;14353;46.070;13.222;2023-05-20T06:16:26;13.10;;;6.97;;
23376;SDS011;14353;46.070;13.222;2023-05-20T06:18:54;11.77;;;7.03;;
23376;SDS011;14353;46.070;13.222;2023-05-20T06:21:23;18.13;;;7.30;;
23376;SDS011;14353;46.070;13.222;2023-05-20T06:23:50;12.75;;;6.97;;
23376;SDS011;14353;46.070;13.222;2023-05-20T06:26:16;10.18;;;7.05;;
23376;SDS011;14353;46.070;13.222;2023-05-20T06:28:42;13.48;;;7.82;;
23376;SDS011;14353;46.070;13.222;2023-05-20T06:31:07;13.68;;;7.30;;
23376;SDS011;14353;46.070;13.222;2023-05-20T06:33:33;11.98;;;7.35;;
23376;SDS011;14353;46.070;13.222;2023-05-20T06:35:59;12.10;;;7.70;;
23376;SDS011;14353;46.070;13.222;2023-05-20T06:38:25;13.52;;;7.50;;
23376;SDS011;14353;46.070;13.222;2023-05-20T06:40:51;11.23;;;7.60;;
23376;SDS011;14353;46.070;13.222;2023-05-20T06:43:17;13.13;;;8.27;;
23376;SDS011;14353;46.070;13.222;2023-05-20T06:45:43;13.75;;;8.18;;
23376;SDS011;14353;46.070;13.222;2023-05-20T06:48:09;14.27;;;8.32;;
23376;SDS011;14353;46.070;13.222;2023-05-20T06:50:35;9.27;;;8.10;;
23376;SDS011;14353;46.070;13.222;2023-05-20T06:53:01;11.27;;;7.78;;
23376;SDS011;14353;46.070;13.222;2023-05-20T06:55:27;14.63;;;8.80;;
23376;SDS011;14353;46.070;13.222;2023-05-20T06:57:52;13.15;;;8.68;;
23376;SDS011;14353;46.070;13.222;2023-05-20T07:00:18;12.07;;;8.48;;
23376;SDS011;14353;46.070;13.222;2023-05-20T07:02:44;14.48;;;8.70;;
23376;SDS011;14353;46.070;13.222;2023-05-20T07:05:10;12.20;;;8.90;;
23376;SDS011;14353;46.070;13.222;2023-05-20T07:07:38;12.35;;;9.07;;
23376;SDS011;14353;46.070;13.222;2023-05-20T07:10:04;15.02;;;10.30;;
23376;SDS011;14353;46.070;13.222;2023-05-20T07:12:30;15.52;;;9.95;;
23376;SDS011;14353;46.070;13.222;2023-05-20T07:14:56;14.70;;;9.95;;
23376;SDS011;14353;46.070;13.222;2023-05-20T07:17:23;11.77;;;10.15;;
23376;SDS011;14353;46.070;13.222;2023-05-20T07:19:50;14.45;;;9.88;;
23376;SDS011;14353;46.070;13.222;2023-05-20T07:22:15;14.85;;;10.00;;
23376;SDS011;14353;46.070;13.222;2023-05-20T07:24:41;13.27;;;9.75;;
23376;SDS011;14353;46.070;13.222;2023-05-20T07:27:07;13.02;;;10.00;;
23376;SDS011;14353;46.070;13.222;2023-05-20T07:29:33;12.48;;;10.07;;
23376;SDS011;14353;46.070;13.222;2023-05-20T07:31:59;11.73;;;10.15;;
23376;SDS011;14353;46.070;13.222;2023-05-20T07:34:26;16.30;;;9.70;;
23376;SDS011;14353;46.070;13.222;2023-05-20T07:36:51;10.27;;;9.18;;
23376;SDS011;14353;46.070;13.222;2023-05-20T07:39:17;11.68;;;10.32;;
23376;SDS011;14353;46.070;13.222;2023-05-20T07:41:43;14.43;;;9.82;;
23376;SDS011;14353;46.070;13.222;2023-05-20T07:44:09;12.00;;;10.73;;
23376;SDS011;14353;46.070;13.222;2023-05-20T07:46:36;18.77;;;10.32;;
23376;SDS011;14353;46.070;13.222;2023-05-20T07:49:02;13.00;;;10.57;;
23376;SDS011;14353;46.070;13.222;2023-05-20T07:51:28;17.67;;;10.50;;
23376;SDS011;14353;46.070;13.222;2023-05-20T07:53:55;14.73;;;10.68;;
23376;SDS011;14353;46.070;13.222;2023-05-20T07:56:21;15.07;;;10.32;;
23376;SDS011;14353;46.070;13.222;2023-05-20T07:58:57;16.15;;;10.48;;
23376;SDS011;14353;46.070;13.222;2023-05-20T08:01:24;13.45;;;10.13;;
23376;SDS011;14353;46.070;13.222;2023-05-20T08:03:50;15.18;;;10.10;;
23376;SDS011;14353;46.070;13.222;2023-05-20T08:06:17;13.68;;;9.93;;
23376;SDS011;14353;46.070;13.222;2023-05-20T08:08:44;16.10;;;11.40;;
23376;SDS011;14353;46.070;13.222;2023-05-20T08:11:10;19.13;;;10.90;;
23376;SDS011;14353;46.070;13.222;2023-05-20T08:13:36;18.90;;;10.85;;
23376;SDS011;14353;46.070;13.222;2023-05-20T08:16:02;14.10;;;9.75;;
23376;SDS011;14353;46.070;13.222;2023-05-20T08:18:29;13.20;;;9.95;;
23376;SDS011;14353;46.070;13.222;2023-05-20T08:20:57;14.27;;;10.13;;
23376;SDS011;14353;46.070;13.222;2023-05-20T08:23:23;16.90;;;10.57;;
23376;SDS011;14353;46.070;13.222;2023-05-20T08:25:49;16.48;;;11.05;;
23376;SDS011;14353;46.070;13.222;2023-05-20T08:28:16;17.95;;;10.52;;
23376;SDS011;14353;46.070;13.222;2023-05-20T08:30:42;12.90;;;9.70;;
23376;SDS011;14353;46.070;13.222;2023-05-20T08:33:08;14.77;;;9.73;;
23376;SDS011;14353;46.070;13.222;2023-05-20T08:35:34;11.73;;;9.85;;
23376;SDS011;14353;46.070;13.222;2023-05-20T08:38:03;13.55;;;8.98;;
23376;SDS011;14353;46.070;13.222;2023-05-20T08:40:29;12.48;;;8.93;;
23376;SDS011;14353;46.070;13.222;2023-05-20T08:42:55;12.90;;;9.00;;
23376;SDS011;14353;46.070;13.222;2023-05-20T08:45:23;15.93;;;9.63;;
23376;SDS011;14353;46.070;13.222;2023-05-20T08:47:52;10.75;;;9.02;;
23376;SDS011;14353;46.070;13.222;2023-05-20T08:50:18;11.18;;;8.85;;
23376;SDS011;14353;46.070;13.222;2023-05-20T08:52:46;14.07;;;8.55;;
23376;SDS011;14353;46.070;13.222;2023-05-20T08:55:25;11.20;;;8.43;;
23376;SDS011;14353;46.070;13.222;2023-05-20T08:57:53;11.70;;;8.30;;
23376;SDS011;14353;46.070;13.222;2023-05-20T09:00:20;11.38;;;8.40;;
23376;SDS011;14353;46.070;13.222;2023-05-20T09:02:51;15.27;;;8.43;;
23376;SDS011;14353;46.070;13.222;2023-05-20T09:05:17;11.95;;;8.50;;
23376;SDS011;14353;46.070;13.222;2023-05-20T09:07:43;16.50;;;8.15;;
23376;SDS011;14353;46.070;13.222;2023-05-20T09:10:09;15.93;;;8.27;;
23376;SDS011;14353;46.070;13.222;2023-05-20T09:12:35;11.93;;;8.32;;
23376;SDS011;14353;46.070;13.222;2023-05-20T09:15:02;15.60;;;8.23;;
23376;SDS011;14353;46.070;13.222;2023-05-20T09:17:29;13.07;;;7.97;;
23376;SDS011;14353;46.070;13.222;2023-05-20T09:19:55;11.20;;;7.85;;
23376;SDS011;14353;46.070;13.222;2023-05-20T09:22:24;12.40;;;7.97;;
23376;SDS011;14353;46.070;13.222;2023-05-20T09:24:51;12.90;;;8.07;;
23376;SDS011;14353;46.070;13.222;2023-05-20T09:27:21;12.23;;;7.65;;
23376;SDS011;14353;46.070;13.222;2023-05-20T09:29:48;21.63;;;8.15;;
23376;SDS011;14353;46.070;13.222;2023-05-20T09:32:15;13.98;;;8.63;;
23376;SDS011;14353;46.070;13.222;2023-05-20T09:34:43;20.00;;;8.77;;
23376;SDS011;14353;46.070;13.222;2023-05-20T09:37:11;18.40;;;9.10;;
23376;SDS011;14353;46.070;13.222;2023-05-20T09:39:45;18.77;;;8.60;;
23376;SDS011;14353;46.070;13.222;2023-05-20T09:42:17;14.10;;;9.40;;
23376;SDS011;14353;46.070;13.222;2023-05-20T09:44:51;16.20;;;8.50;;
23376;SDS011;14353;46.070;13.222;2023-05-20T09:47:18;22.27;;;9.80;;
23376;SDS011;14353;46.070;13.222;2023-05-20T09:49:47;12.32;;;8.60;;
23376;SDS011;14353;46.070;13.222;2023-05-20T09:52:16;13.43;;;8.90;;
23376;SDS011;14353;46.070;13.222;2023-05-20T09:54:43;14.85;;;8.63;;
23376;SDS011;14353;46.070;13.222;2023-05-20T09:57:09;9.38;;;8.15;;
23376;SDS011;14353;46.070;13.222;2023-05-20T09:59:36;13.40;;;8.35;;
23376;SDS011;14353;46.070;13.222;2023-05-20T10:02:04;13.43;;;9.25;;
23376;SDS011;14353;46.070;13.222;2023-05-20T10:04:31;14.88;;;9.18;;
23376;SDS011;14353;46.070;13.222;2023-05-20T10:21:17;19.77;;;9.40;;
23376;SDS011;14353;46.070;13.222;2023-05-20T10:23:48;17.55;;;9.68;;
23376;SDS011;14353;46.070;13.222;2023-05-20T10:26:15;22.45;;;9.50;;
23376;SDS011;14353;46.070;13.222;2023-05-20T10:28:41;14.68;;;9.25;;
23376;SDS011;14353;46.070;13.222;2023-05-20T10:31:20;13.20;;;9.30;;
23376;SDS011;14353;46.070;13.222;2023-05-20T10:33:46;13.75;;;8.60;;
23376;SDS011;14353;46.070;13.222;2023-05-20T10:36:25;11.38;;;9.30;;
23376;SDS011;14353;46.070;13.222;2023-05-20T10:38:52;15.85;;;9.30;;
23376;SDS011;14353;46.070;13.222;2023-05-20T10:41:20;16.90;;;9.23;;
23376;SDS011;14353;46.070;13.222;2023-05-20T10:43:57;12.18;;;8.80;;
23376;SDS011;14353;46.070;13.222;2023-05-20T10:46:27;9.98;;;8.55;;
23376;SDS011;14353;46.070;13.222;2023-05-20T10:48:53;11.35;;;9.10;;
23376;SDS011;14353;46.070;13.222;2023-05-20T10:51:19;9.38;;;8.32;;
23376;SDS011;14353;46.070;13.222;2023-05-20T10:53:46;12.63;;;8.40;;
23376;SDS011;14353;46.070;13.222;2023-05-20T10:56:18;11.63;;;9.23;;
23376;SDS011;14353;46.070;13.222;2023-05-20T10:58:48;12.00;;;8.68;;
23376;SDS011;14353;46.070;13.222;2023-05-20T11:01:15;10.98;;;8.52;;
23376;SDS011;14353;46.070;13.222;2023-05-20T11:03:43;10.25;;;8.15;;
23376;SDS011;14353;46.070;13.222;2023-05-20T11:06:15;18.23;;;8.50;;
23376;SDS011;14353;46.070;13.222;2023-05-20T11:08:42;12.93;;;8.07;;
23376;SDS011;14353;46.070;13.222;2023-05-20T11:11:09;14.40;;;8.50;;
23376;SDS011;14353;46.070;13.222;2023-05-20T11:13:35;12.18;;;8.15;;
23376;SDS011;14353;46.070;13.222;2023-05-20T11:16:01;13.32;;;8.10;;
23376;SDS011;14353;46.070;13.222;2023-05-20T11:18:29;12.65;;;7.90;;
23376;SDS011;14353;46.070;13.222;2023-05-20T11:20:56;9.65;;;7.78;;
23376;SDS011;14353;46.070;13.222;2023-05-20T11:23:22;12.00;;;8.38;;
23376;SDS011;14353;46.070;13.222;2023-05-20T11:25:51;13.70;;;9.52;;
23376;SDS011;14353;46.070;13.222;2023-05-20T11:28:18;12.43;;;9.77;;
23376;SDS011;14353;46.070;13.222;2023-05-20T11:30:45;16.08;;;10.82;;
23376;SDS011;14353;46.070;13.222;2023-05-20T11:33:12;16.95;;;10.75;;
23376;SDS011;14353;46.070;13.222;2023-05-20T11:35:48;16.02;;;10.00;;
23376;SDS011;14353;46.070;13.222;2023-05-20T11:38:15;16.95;;;10.68;;
23376;SDS011;14353;46.070;13.222;2023-05-20T11:40:45;16.20;;;11.20;;
23376;SDS011;14353;46.070;13.222;2023-05-20T11:43:16;21.38;;;11.15;;
23376;SDS011;14353;46.070;13.222;2023-05-20T11:45:46;18.58;;;11.90;;
23376;SDS011;14353;46.070;13.222;2023-05-20T11:48:17;21.90;;;11.50;;
23376;SDS011;14353;46.070;13.222;2023-05-20T11:50:45;16.48;;;11.05;;
23376;SDS011;14353;46.070;13.222;2023-05-20T11:53:18;17.08;;;10.82;;
23376;SDS011;14353;46.070;13.222;2023-05-20T11:55:47;17.13;;;10.30;;
23376;SDS011;14353;46.070;13.222;2023-05-20T11:58:19;13.73;;;9.23;;
23376;SDS011;14353;46.070;13.222;2023-05-20T12:00:48;16.30;;;9.70;;
23376;SDS011;14353;46.070;13.222;2023-05-20T12:03:14;13.80;;;9.07;;
23376;SDS011;14353;46.070;13.222;2023-05-20T12:05:41;19.58;;;9.88;;
23376;SDS011;14353;46.070;13.222;2023-05-20T12:08:07;14.73;;;10.07;;
23376;SDS011;14353;46.070;13.222;2023-05-20T12:10:33;15.70;;;10.02;;
23376;SDS011;14353;46.070;13.222;2023-05-20T12:12:59;15.45;;;10.25;;
23376;SDS011;14353;46.070;13.222;2023-05-20T12:15:25;14.82;;;9.40;;
23376;SDS011;14353;46.070;13.222;2023-05-20T12:17:51;15.85;;;9.93;;
23376;SDS011;14353;46.070;13.222;2023-05-20T12:20:19;11.07;;;9.57;;
23376;SDS011;14353;46.070;13.222;2023-05-20T12:22:46;12.65;;;10.02;;
23376;SDS011;14353;46.070;13.222;2023-05-20T12:25:13;14.98;;;10.40;;
23376;SDS011;14353;46.070;13.222;2023-05-20T12:27:41;15.32;;;10.05;;
23376;SDS011;14353;46.070;13.222;2023-05-20T12:30:07;11.80;;;10.32;;
23376;SDS011;14353;46.070;13.222;2023-05-20T12:32:34;13.20;;;9.45;;
23376;SDS011;14353;46.070;13.222;2023-05-20T12:35:03;13.35;;;9.63;;
23376;SDS011;14353;46.070;13.222;2023-05-20T12:37:29;13.88;;;10.02;;
23376;SDS011;14353;46.070;13.222;2023-05-20T12:39:55;16.30;;;9.80;;
23376;SDS011;14353;46.070;13.222;2023-05-20T12:42:21;14.30;;;9.18;;
23376;SDS011;14353;46.070;13.222;2023-05-20T12:44:46;12.65;;;10.23;;
23376;SDS011;14353;46.070;13.222;2023-05-20T12:47:12;11.35;;;9.48;;
23376;SDS011;14353;46.070;13.222;2023-05-20T12:49:38;12.10;;;9.68;;
23376;SDS011;14353;46.070;13.222;2023-05-20T12:52:04;13.48;;;9.32;;
23376;SDS011;14353;46.070;13.222;2023-05-20T12:54:30;10.88;;;9.52;;
23376;SDS011;14353;46.070;13.222;2023-05-20T12:56:56;13.25;;;9.23;;
23376;SDS011;14353;46.070;13.222;2023-05-20T12:59:22;12.45;;;9.32;;
23376;SDS011;14353;46.070;13.222;2023-05-20T13:01:48;13.80;;;9.55;;
23376;SDS011;14353;46.070;13.222;2023-05-20T13:04:14;13.02;;;9.68;;
23376;SDS011;14353;46.070;13.222;2023-05-20T13:06:40;13.77;;;9.18;;
23376;SDS011;14353;46.070;13.222;2023-05-20T13:09:06;12.23;;;9.30;;
23376;SDS011;14353;46.070;13.222;2023-05-20T13:11:32;10.18;;;9.02;;
23376;SDS011;14353;46.070;13.222;2023-05-20T13:13:58;10.40;;;8.70;;
23376;SDS011;14353;46.070;13.222;2023-05-20T13:16:25;10.13;;;8.73;;
23376;SDS011;14353;46.070;13.222;2023-05-20T13:18:50;12.05;;;9.48;;
23376;SDS011;14353;46.070;13.222;2023-05-20T13:21:16;10.82;;;9.23;;
23376;SDS011;14353;46.070;13.222;2023-05-20T13:23:43;10.70;;;8.75;;
23376;SDS011;14353;46.070;13.222;2023-05-20T13:26:08;10.10;;;8.68;;
23376;SDS011;14353;46.070;13.222;2023-05-20T13:28:34;14.38;;;9.18;;
23376;SDS011;14353;46.070;13.222;2023-05-20T13:31:04;15.18;;;8.98;;
23376;SDS011;14353;46.070;13.222;2023-05-20T13:33:30;11.77;;;9.15;;
23376;SDS011;14353;46.070;13.222;2023-05-20T13:35:56;11.30;;;9.10;;
23376;SDS011;14353;46.070;13.222;2023-05-20T13:38:22;10.48;;;8.77;;
23376;SDS011;14353;46.070;13.222;2023-05-20T13:40:48;11.73;;;8.75;;
23376;SDS011;14353;46.070;13.222;2023-05-20T13:43:14;10.50;;;8.98;;
23376;SDS011;14353;46.070;13.222;2023-05-20T13:45:40;9.57;;;8.57;;
23376;SDS011;14353;46.070;13.222;2023-05-20T13:48:06;9.65;;;8.50;;
23376;SDS011;14353;46.070;13.222;2023-05-20T13:50:32;9.95;;;8.77;;
23376;SDS011;14353;46.070;13.222;2023-05-20T13:52:58;10.98;;;8.75;;
23376;SDS011;14353;46.070;13.222;2023-05-20T13:55:23;10.00;;;9.00;;
23376;SDS011;14353;46.070;13.222;2023-05-20T13:57:49;11.65;;;8.70;;
23376;SDS011;14353;46.070;13.222;2023-05-20T14:00:17;11.55;;;9.10;;
23376;SDS011;14353;46.070;13.222;2023-05-20T14:02:42;10.38;;;8.82;;
23376;SDS011;14353;46.070;13.222;2023-05-20T14:05:08;13.50;;;9.30;;
23376;SDS011;14353;46.070;13.222;2023-05-20T14:07:34;10.50;;;8.45;;
23376;SDS011;14353;46.070;13.222;2023-05-20T14:10:00;10.55;;;8.63;;
23376;SDS011;14353;46.070;13.222;2023-05-20T14:12:26;9.73;;;8.73;;
23376;SDS011;14353;46.070;13.222;2023-05-20T14:14:52;11.15;;;8.77;;
23376;SDS011;14353;46.070;13.222;2023-05-20T14:17:18;11.05;;;8.85;;
23376;SDS011;14353;46.070;13.222;2023-05-20T14:19:43;12.23;;;8.80;;
23376;SDS011;14353;46.070;13.222;2023-05-20T14:22:09;11.68;;;8.77;;
23376;SDS011;14353;46.070;13.222;2023-05-20T14:24:37;9.85;;;8.48;;
23376;SDS011;14353;46.070;13.222;2023-05-20T14:27:03;11.52;;;8.48;;
23376;SDS011;14353;46.070;13.222;2023-05-20T14:29:29;9.55;;;8.63;;
23376;SDS011;14353;46.070;13.222;2023-05-20T14:31:55;9.68;;;8.68;;
23376;SDS011;14353;46.070;13.222;2023-05-20T14:34:20;9.60;;;8.63;;
23376;SDS011;14353;46.070;13.222;2023-05-20T14:36:46;13.18;;;9.07;;